Eckard, Illinois
Current Conditions -  °F | °C
As of 8:54 PM on Wednesday 26 Nov 2014 (Local Time) from KPIA Reporting Station
Light Snow Light Snow  
Wind Chill: 22°   Ceiling: 1600
Heat Index: 29°   Visibility: 2mi
Dew Point: 23°   Wind: 7mph
Humidity: 78%   Direction: 20°NNE
Pressure: 30.18"   Gusts: NA
Location:  40.2774°N, 90.0095°W
Report Text: KPIA 270254Z 02006KT 2SM -SN FEW009 BKN016 OVC030 M02/M05 A3018 RMK AO2 SNE10B29 SLP229 P0000 60001 T10171050 51008
Loading
Personal Weather Stations






























Interactive Weather Map New forecast layout! Learn more

10-Day Weather Forecast

Advertisements
Track Severe Weather on mobile